createdAt,value
2023-03-25T00:00:19.338Z,9.51
2023-03-25T00:00:46.030Z,9.51
2023-03-25T00:01:14.254Z,9.49
2023-03-25T00:01:37.985Z,9.49
2023-03-25T00:02:01.488Z,9.47
2023-03-25T00:02:24.881Z,9.46
2023-03-25T00:02:49.468Z,9.44
2023-03-25T00:03:12.946Z,9.44
2023-03-25T00:03:42.064Z,9.43
2023-03-25T00:04:04.972Z,9.42
2023-03-25T00:04:28.165Z,9.41
2023-03-25T00:04:52.036Z,9.40
2023-03-25T00:05:15.928Z,9.38
2023-03-25T00:05:39.666Z,9.37
2023-03-25T00:06:05.451Z,9.35
2023-03-25T00:06:28.644Z,9.35
2023-03-25T00:06:52.270Z,9.34
2023-03-25T00:07:15.915Z,9.33
2023-03-25T00:07:39.834Z,9.32
2023-03-25T00:08:04.188Z,9.31
2023-03-25T00:08:30.149Z,9.30
2023-03-25T00:08:55.002Z,9.28
2023-03-25T00:09:19.855Z,9.27
2023-03-25T00:09:42.968Z,9.27
2023-03-25T00:10:06.697Z,9.25
2023-03-25T00:10:29.912Z,9.24
2023-03-25T00:10:53.785Z,9.22
2023-03-25T00:11:17.684Z,9.22
2023-03-25T00:11:40.793Z,9.20
2023-03-25T00:12:04.058Z,9.20
2023-03-25T00:12:28.054Z,9.19
2023-03-25T00:12:51.050Z,9.18
2023-03-25T00:13:15.707Z,9.18
2023-03-25T00:13:40.959Z,9.18
2023-03-25T00:14:06.327Z,9.19
2023-03-25T00:14:36.722Z,9.20
2023-03-25T00:15:00.942Z,9.21
2023-03-25T00:15:24.927Z,9.22
2023-03-25T00:15:48.942Z,9.23
2023-03-25T00:16:12.498Z,9.24
2023-03-25T00:16:37.106Z,9.25
2023-03-25T00:17:01.423Z,9.26
2023-03-25T00:17:29.308Z,9.27
2023-03-25T00:17:53.241Z,9.27
2023-03-25T00:18:19.167Z,9.27
2023-03-25T00:18:42.358Z,9.28
2023-03-25T00:19:06.703Z,9.27
2023-03-25T00:19:30.124Z,9.26
2023-03-25T00:19:53.353Z,9.25
2023-03-25T00:20:18.612Z,9.24
2023-03-25T00:20:49.809Z,9.23
2023-03-25T00:21:15.994Z,9.21
2023-03-25T00:21:44.747Z,9.20
2023-03-25T00:22:08.962Z,9.19
2023-03-25T00:22:32.300Z,9.18
2023-03-25T00:22:56.824Z,9.17
2023-03-25T00:23:20.556Z,9.16
2023-03-25T00:23:43.767Z,9.15
2023-03-25T00:24:07.821Z,9.14
2023-03-25T00:24:32.348Z,9.14
2023-03-25T00:24:55.868Z,9.13
2023-03-25T00:25:20.835Z,9.12
2023-03-25T00:25:45.216Z,9.11
2023-03-25T00:26:08.390Z,9.10
2023-03-25T00:26:32.532Z,9.09
2023-03-25T00:26:55.919Z,9.08
2023-03-25T00:27:21.818Z,9.07
2023-03-25T00:27:47.997Z,9.06
2023-03-25T00:28:15.109Z,9.05
2023-03-25T00:28:39.108Z,9.04
2023-03-25T00:29:02.316Z,9.03
2023-03-25T00:29:26.491Z,9.02
2023-03-25T00:29:49.398Z,9.01
2023-03-25T00:30:13.330Z,9.00
2023-03-25T00:30:38.095Z,8.99
2023-03-25T00:31:06.244Z,8.99
2023-03-25T00:31:29.423Z,8.99
2023-03-25T00:31:52.641Z,8.99
2023-03-25T00:32:15.856Z,8.99
2023-03-25T00:32:39.900Z,9.00
2023-03-25T00:33:03.045Z,9.02
2023-03-25T00:33:26.941Z,9.02
2023-03-25T00:33:50.981Z,9.03
2023-03-25T00:34:17.866Z,9.04
2023-03-25T00:34:47.685Z,9.06
2023-03-25T00:35:14.128Z,9.07
2023-03-25T00:35:38.689Z,9.07
2023-03-25T00:36:04.666Z,9.07
2023-03-25T00:36:29.823Z,9.07
2023-03-25T00:36:53.382Z,9.07
2023-03-25T00:37:17.993Z,9.06
2023-03-25T00:37:41.386Z,9.06
2023-03-25T00:38:04.608Z,9.04
2023-03-25T00:38:35.582Z,9.03
2023-03-25T00:38:58.626Z,9.02
2023-03-25T00:39:21.724Z,9.01
2023-03-25T00:39:45.884Z,9.00
2023-03-25T00:40:09.302Z,8.99
2023-03-25T00:40:37.421Z,8.97
2023-03-25T00:41:27.634Z,8.96
2023-03-25T00:41:51.350Z,8.94
2023-03-25T00:42:17.743Z,8.93
2023-03-25T00:42:44.916Z,8.92
2023-03-25T00:43:08.568Z,8.91
2023-03-25T00:43:31.698Z,8.90
2023-03-25T00:43:56.862Z,8.90
2023-03-25T00:44:22.622Z,8.89
2023-03-25T00:44:45.806Z,8.88
2023-03-25T00:45:09.149Z,8.87
2023-03-25T00:45:33.088Z,8.86
2023-03-25T00:45:56.745Z,8.85
2023-03-25T00:46:19.891Z,8.84
2023-03-25T00:46:43.374Z,8.84
2023-03-25T00:47:08.911Z,8.84
2023-03-25T00:47:32.252Z,8.85
2023-03-25T00:47:55.527Z,8.85
2023-03-25T00:48:18.971Z,8.87
2023-03-25T00:48:43.420Z,8.88
2023-03-25T00:49:09.192Z,8.89
2023-03-25T00:49:32.508Z,8.91
2023-03-25T00:49:57.673Z,8.92
2023-03-25T00:50:22.316Z,8.94
2023-03-25T00:50:46.456Z,8.95
2023-03-25T00:51:13.806Z,8.95
2023-03-25T00:51:52.998Z,8.95
2023-03-25T00:52:18.717Z,8.96
2023-03-25T00:52:42.847Z,8.96
2023-03-25T00:53:08.415Z,8.95
2023-03-25T00:53:31.626Z,8.95
2023-03-25T00:53:55.662Z,8.94
2023-03-25T00:54:18.982Z,8.93
2023-03-25T00:54:44.137Z,8.93
2023-03-25T00:55:07.572Z,8.91
2023-03-25T00:55:31.463Z,8.91
2023-03-25T00:55:57.674Z,8.90
2023-03-25T00:56:21.307Z,8.89
2023-03-25T00:56:44.537Z,8.88
2023-03-25T00:57:07.826Z,8.88
2023-03-25T00:57:31.152Z,8.88
2023-03-25T00:58:00.514Z,8.87
2023-03-25T00:58:24.433Z,8.86
2023-03-25T00:58:51.437Z,8.85
2023-03-25T00:59:14.654Z,8.85
2023-03-25T00:59:38.178Z,8.84
2023-03-25T01:00:02.013Z,8.83
2023-03-25T01:00:26.253Z,8.83
2023-03-25T01:00:50.896Z,8.82
2023-03-25T01:01:16.516Z,8.82
2023-03-25T01:01:40.892Z,8.82
2023-03-25T01:02:05.245Z,8.82
2023-03-25T01:02:31.228Z,8.83
2023-03-25T01:02:55.335Z,8.84
2023-03-25T01:03:19.037Z,8.86
2023-03-25T01:03:44.146Z,8.87
2023-03-25T01:04:12.613Z,8.88
2023-03-25T01:04:41.442Z,8.90
2023-03-25T01:05:06.069Z,8.91
2023-03-25T01:05:29.902Z,8.93
2023-03-25T01:05:54.957Z,8.93
2023-03-25T01:06:18.082Z,8.93
2023-03-25T01:06:44.453Z,8.93
2023-03-25T01:07:08.184Z,8.93
2023-03-25T01:07:33.301Z,8.92
2023-03-25T01:07:57.170Z,8.91
2023-03-25T01:08:25.778Z,8.90
2023-03-25T01:08:51.584Z,8.90
2023-03-25T01:09:15.720Z,8.89
2023-03-25T01:09:39.240Z,8.88
2023-03-25T01:10:02.558Z,8.87
2023-03-25T01:10:28.438Z,8.86
2023-03-25T01:10:54.545Z,8.85
2023-03-25T01:11:21.756Z,8.84
2023-03-25T01:11:46.894Z,8.83
2023-03-25T01:12:09.999Z,8.82
2023-03-25T01:12:33.114Z,8.82
2023-03-25T01:12:56.552Z,8.81
2023-03-25T01:13:25.369Z,8.80
2023-03-25T01:13:54.317Z,8.79
2023-03-25T01:14:21.140Z,8.78
2023-03-25T01:14:44.942Z,8.77
2023-03-25T01:15:09.614Z,8.78
2023-03-25T01:15:33.367Z,8.77
2023-03-25T01:15:56.554Z,8.77
2023-03-25T01:16:20.875Z,8.78
2023-03-25T01:16:44.089Z,8.79
2023-03-25T01:17:07.310Z,8.80
2023-03-25T01:17:30.966Z,8.81
2023-03-25T01:17:53.994Z,8.83
2023-03-25T01:18:17.088Z,8.84
2023-03-25T01:18:40.175Z,8.86
2023-03-25T01:19:03.727Z,8.87
2023-03-25T01:19:26.884Z,8.88
2023-03-25T01:19:58.414Z,8.89
2023-03-25T01:20:22.273Z,8.89
2023-03-25T01:20:45.684Z,8.89
2023-03-25T01:21:09.190Z,8.89
2023-03-25T01:21:36.925Z,8.88
2023-03-25T01:22:00.630Z,8.88
2023-03-25T01:22:23.680Z,8.87
2023-03-25T01:22:46.756Z,8.86
2023-03-25T01:23:10.056Z,8.85
2023-03-25T01:23:33.392Z,8.84
2023-03-25T01:23:56.509Z,8.83
2023-03-25T01:24:19.723Z,8.83
2023-03-25T01:24:42.942Z,8.81
2023-03-25T01:25:06.061Z,8.81
2023-03-25T01:25:31.723Z,8.79
2023-03-25T01:25:54.999Z,8.79
2023-03-25T01:26:18.375Z,8.78
2023-03-25T01:26:43.725Z,8.78
2023-03-25T01:27:06.828Z,8.77
2023-03-25T01:27:30.875Z,8.76
2023-03-25T01:27:53.989Z,8.75
2023-03-25T01:28:17.208Z,8.75
2023-03-25T01:28:41.054Z,8.73
2023-03-25T01:29:04.280Z,8.72
2023-03-25T01:29:27.488Z,8.72
2023-03-25T01:29:51.521Z,8.72
2023-03-25T01:30:14.923Z,8.73
2023-03-25T01:30:39.161Z,8.73
2023-03-25T01:31:08.485Z,8.75
2023-03-25T01:31:31.807Z,8.76
2023-03-25T01:31:55.764Z,8.78
2023-03-25T01:32:18.881Z,8.79
2023-03-25T01:32:42.060Z,8.80
2023-03-25T01:33:05.089Z,8.81
2023-03-25T01:33:28.631Z,8.82
2023-03-25T01:33:52.478Z,8.82
2023-03-25T01:34:15.679Z,8.83
2023-03-25T01:34:39.302Z,8.82
2023-03-25T01:35:04.666Z,8.83
2023-03-25T01:35:27.882Z,8.82
2023-03-25T01:35:51.573Z,8.81
2023-03-25T01:36:15.250Z,8.81
2023-03-25T01:36:40.190Z,8.79
2023-03-25T01:37:03.376Z,8.78
2023-03-25T01:37:27.439Z,8.78
2023-03-25T01:37:50.658Z,8.77
2023-03-25T01:38:14.180Z,8.76
2023-03-25T01:38:37.721Z,8.76
2023-03-25T01:39:01.669Z,8.74
2023-03-25T01:39:25.472Z,8.74
2023-03-25T01:39:48.697Z,8.72
2023-03-25T01:40:13.746Z,8.72
2023-03-25T01:40:36.756Z,8.70
2023-03-25T01:40:59.973Z,8.69
2023-03-25T01:41:23.401Z,8.69
2023-03-25T01:41:50.698Z,8.67
2023-03-25T01:42:14.323Z,8.66
2023-03-25T01:42:37.679Z,8.65
2023-03-25T01:43:01.201Z,8.64
2023-03-25T01:43:24.486Z,8.62
2023-03-25T01:44:06.519Z,8.61
2023-03-25T01:44:30.363Z,8.60
2023-03-25T01:44:53.488Z,8.59
2023-03-25T01:45:20.402Z,8.58
2023-03-25T01:45:45.418Z,8.59
2023-03-25T01:46:14.281Z,8.59
2023-03-25T01:46:38.237Z,8.60
2023-03-25T01:47:04.856Z,8.61
2023-03-25T01:47:28.242Z,8.62
2023-03-25T01:48:13.313Z,8.64
2023-03-25T01:48:40.818Z,8.66
2023-03-25T01:49:04.752Z,8.67
2023-03-25T01:49:31.481Z,8.68
2023-03-25T01:49:56.502Z,8.68
2023-03-25T01:50:21.260Z,8.68
2023-03-25T01:50:45.387Z,8.67
2023-03-25T01:51:16.280Z,8.67
2023-03-25T01:51:39.500Z,8.66
2023-03-25T01:52:22.780Z,8.64
2023-03-25T01:52:48.262Z,8.62
2023-03-25T01:53:19.137Z,8.60
2023-03-25T01:53:42.749Z,8.59
2023-03-25T01:54:06.378Z,8.58
2023-03-25T01:54:29.695Z,8.57
2023-03-25T01:54:53.613Z,8.56
2023-03-25T01:55:18.258Z,8.56
2023-03-25T01:55:41.474Z,8.54
2023-03-25T01:56:05.749Z,8.54
2023-03-25T01:56:31.985Z,8.52
2023-03-25T01:56:55.148Z,8.52
2023-03-25T01:57:19.863Z,8.50
2023-03-25T01:57:44.005Z,8.50
2023-03-25T01:58:12.037Z,8.49
2023-03-25T01:58:35.683Z,8.48
2023-03-25T01:58:59.786Z,8.46
2023-03-25T01:59:25.047Z,8.45
2023-03-25T01:59:48.063Z,8.44
2023-03-25T02:00:15.890Z,8.42
2023-03-25T02:00:43.966Z,8.42
2023-03-25T02:01:07.508Z,8.41
2023-03-25T02:01:31.568Z,8.41
2023-03-25T02:01:58.568Z,8.41
2023-03-25T02:02:21.878Z,8.42
2023-03-25T02:02:46.080Z,8.43
2023-03-25T02:03:09.685Z,8.44
2023-03-25T02:03:37.426Z,8.46
2023-03-25T02:04:10.188Z,8.47
2023-03-25T02:04:59.345Z,8.49
2023-03-25T02:05:43.479Z,8.50
2023-03-25T02:06:09.347Z,8.49
2023-03-25T02:06:34.807Z,8.49
2023-03-25T02:06:58.644Z,8.48
2023-03-25T02:07:22.976Z,8.47
2023-03-25T02:07:48.242Z,8.45
2023-03-25T02:08:12.483Z,8.44
2023-03-25T02:08:41.760Z,8.43
2023-03-25T02:09:09.247Z,8.41
2023-03-25T02:09:32.688Z,8.39
2023-03-25T02:09:56.387Z,8.38
2023-03-25T02:10:19.626Z,8.37
2023-03-25T02:10:45.377Z,8.36
2023-03-25T02:11:09.516Z,8.35
2023-03-25T02:11:33.346Z,8.33
2023-03-25T02:11:56.460Z,8.32
2023-03-25T02:12:19.678Z,8.30
2023-03-25T02:12:50.067Z,8.29
2023-03-25T02:13:13.981Z,8.28
2023-03-25T02:13:41.111Z,8.26
2023-03-25T02:14:06.960Z,8.25
2023-03-25T02:14:32.088Z,8.24
2023-03-25T02:15:00.781Z,8.23
2023-03-25T02:15:24.486Z,8.22
2023-03-25T02:16:23.911Z,8.21
2023-03-25T02:16:56.837Z,8.19
2023-03-25T02:17:22.745Z,8.18
2023-03-25T02:18:04.787Z,8.16
2023-03-25T02:18:44.911Z,8.15
2023-03-25T02:19:08.363Z,8.14
2023-03-25T02:19:33.225Z,8.13
2023-03-25T02:19:56.229Z,8.14
2023-03-25T02:20:24.863Z,8.14
2023-03-25T02:21:27.765Z,8.15
2023-03-25T02:22:06.036Z,8.17
2023-03-25T02:22:38.433Z,8.19
2023-03-25T02:23:05.025Z,8.20
2023-03-25T02:23:29.599Z,8.21
2023-03-25T02:24:06.189Z,8.22
2023-03-25T02:24:43.619Z,8.22
2023-03-25T02:25:25.960Z,8.21
2023-03-25T02:26:07.861Z,8.20
2023-03-25T02:26:46.143Z,8.17
2023-03-25T02:27:14.514Z,8.15
2023-03-25T02:27:42.190Z,8.13
2023-03-25T02:28:12.065Z,8.12
2023-03-25T02:28:51.784Z,8.11
2023-03-25T02:29:28.167Z,8.09
2023-03-25T02:30:10.081Z,8.06
2023-03-25T02:30:36.686Z,8.05
2023-03-25T02:31:00.501Z,8.03
2023-03-25T02:31:50.336Z,8.03
2023-03-25T02:32:32.282Z,8.01
2023-03-25T02:32:57.041Z,7.99
2023-03-25T02:33:39.027Z,7.98
2023-03-25T02:34:18.299Z,7.97
2023-03-25T02:34:42.438Z,7.95
2023-03-25T02:35:24.182Z,7.95
2023-03-25T02:36:00.587Z,7.93
2023-03-25T02:36:39.960Z,7.93
2023-03-25T02:37:09.435Z,7.94
2023-03-25T02:38:07.431Z,7.95
2023-03-25T02:38:32.668Z,7.98
2023-03-25T02:39:21.242Z,8.06
2023-03-25T02:39:49.465Z,8.02
2023-03-25T02:40:20.054Z,8.03
2023-03-25T02:40:46.537Z,8.03
2023-03-25T02:41:14.660Z,8.03
2023-03-25T02:41:40.954Z,8.03
2023-03-25T02:42:04.368Z,8.03
2023-03-25T02:42:42.211Z,8.01
2023-03-25T02:43:06.078Z,8.01
2023-03-25T02:43:29.865Z,8.00
2023-03-25T02:44:04.843Z,7.99
2023-03-25T02:44:31.334Z,7.97
2023-03-25T02:45:03.639Z,7.95
2023-03-25T02:45:34.034Z,7.93
2023-03-25T02:45:58.186Z,7.92
2023-03-25T02:46:21.539Z,7.91
2023-03-25T02:46:49.711Z,7.91
2023-03-25T02:47:15.993Z,7.89
2023-03-25T02:47:42.499Z,7.89
2023-03-25T02:48:07.908Z,7.87
2023-03-25T02:48:33.928Z,7.86
2023-03-25T02:48:56.947Z,7.85
2023-03-25T02:49:40.627Z,7.84
2023-03-25T02:50:07.744Z,7.83
2023-03-25T02:50:38.703Z,7.82
2023-03-25T02:51:03.146Z,7.81
2023-03-25T02:51:32.395Z,7.81
2023-03-25T02:51:57.068Z,7.81
2023-03-25T02:52:33.763Z,7.81
2023-03-25T02:53:01.001Z,7.83
2023-03-25T02:53:26.538Z,7.84
2023-03-25T02:53:49.685Z,7.85
2023-03-25T02:54:13.281Z,7.86
2023-03-25T02:54:39.453Z,7.88
2023-03-25T02:55:05.170Z,7.88
2023-03-25T02:55:30.817Z,7.89
2023-03-25T02:55:55.257Z,7.90
2023-03-25T02:56:22.360Z,7.90
2023-03-25T02:56:46.129Z,7.89
2023-03-25T02:57:09.266Z,7.89
2023-03-25T02:57:33.612Z,7.88
2023-03-25T02:57:59.404Z,7.87
2023-03-25T02:58:24.592Z,7.85
2023-03-25T02:58:47.841Z,7.85
2023-03-25T02:59:14.368Z,7.83
2023-03-25T02:59:38.504Z,7.82
2023-03-25T03:00:02.746Z,7.80
2023-03-25T03:00:27.702Z,7.80
2023-03-25T03:00:52.304Z,7.78
2023-03-25T03:01:17.543Z,7.77
2023-03-25T03:01:41.496Z,7.77
2023-03-25T03:02:08.373Z,7.75
2023-03-25T03:02:32.698Z,7.75
2023-03-25T03:03:01.263Z,7.73
2023-03-25T03:03:27.412Z,7.72
2023-03-25T03:03:51.137Z,7.71
2023-03-25T03:04:14.370Z,7.70
2023-03-25T03:04:52.697Z,7.69
2023-03-25T03:05:29.833Z,7.69
2023-03-25T03:05:53.997Z,7.69
2023-03-25T03:06:18.915Z,7.70
2023-03-25T03:06:46.245Z,7.71
2023-03-25T03:07:09.845Z,7.71
2023-03-25T03:07:36.580Z,7.72
2023-03-25T03:08:00.093Z,7.73
2023-03-25T03:08:39.540Z,7.73
2023-03-25T03:09:09.214Z,7.73
2023-03-25T03:09:35.178Z,7.73
2023-03-25T03:10:01.267Z,7.72
2023-03-25T03:10:26.532Z,7.71
2023-03-25T03:11:08.489Z,7.70
2023-03-25T03:11:32.496Z,7.67
2023-03-25T03:12:03.477Z,7.64
2023-03-25T03:12:26.897Z,7.63
2023-03-25T03:12:58.746Z,7.61
2023-03-25T03:13:35.504Z,7.59
2023-03-25T03:14:17.231Z,7.58
2023-03-25T03:15:01.235Z,7.56
2023-03-25T03:15:28.339Z,7.54
2023-03-25T03:16:09.242Z,7.52
2023-03-25T03:16:51.295Z,7.51
2023-03-25T03:17:30.304Z,7.49
2023-03-25T03:17:58.332Z,7.48
2023-03-25T03:18:38.338Z,7.48
2023-03-25T03:19:02.394Z,7.49
2023-03-25T03:19:34.488Z,7.50
2023-03-25T03:20:01.309Z,7.51
2023-03-25T03:20:33.825Z,7.52
2023-03-25T03:21:00.795Z,7.53
2023-03-25T03:21:31.714Z,7.53
2023-03-25T03:22:01.341Z,7.54
2023-03-25T03:22:43.728Z,7.54
2023-03-25T03:23:11.075Z,7.53
2023-03-25T03:23:37.121Z,7.52
2023-03-25T03:24:11.266Z,7.50
2023-03-25T03:24:38.464Z,7.49
2023-03-25T03:25:16.412Z,7.47
2023-03-25T03:25:45.867Z,7.45
2023-03-25T03:26:26.497Z,7.44
2023-03-25T03:27:00.015Z,7.42
2023-03-25T03:27:34.189Z,7.41
2023-03-25T03:28:00.263Z,7.39
2023-03-25T03:28:34.732Z,7.37
2023-03-25T03:29:06.235Z,7.36
2023-03-25T03:29:40.081Z,7.35
2023-03-25T03:30:05.236Z,7.33
2023-03-25T03:30:33.060Z,7.32
2023-03-25T03:31:12.242Z,7.32
2023-03-25T03:32:00.188Z,7.33
2023-03-25T03:32:28.592Z,7.34
2023-03-25T03:32:55.116Z,7.35
2023-03-25T03:33:30.704Z,7.36
2023-03-25T03:33:55.456Z,7.37
2023-03-25T03:34:24.509Z,7.38
2023-03-25T03:34:49.158Z,7.37
2023-03-25T03:35:23.465Z,7.38
2023-03-25T03:35:50.668Z,7.37
2023-03-25T03:36:16.015Z,7.36
2023-03-25T03:36:41.141Z,7.35
2023-03-25T03:37:04.047Z,7.33
2023-03-25T03:37:33.414Z,7.32
2023-03-25T03:37:58.368Z,7.30
2023-03-25T03:38:21.679Z,7.28
2023-03-25T03:38:46.945Z,7.26
2023-03-25T03:39:14.261Z,7.25
2023-03-25T03:39:37.279Z,7.24
2023-03-25T03:40:00.477Z,7.23
2023-03-25T03:40:23.839Z,7.22
2023-03-25T03:40:49.875Z,7.20
2023-03-25T03:41:17.185Z,7.19
2023-03-25T03:41:40.516Z,7.17
2023-03-25T03:42:06.577Z,7.15
2023-03-25T03:42:30.818Z,7.14
2023-03-25T03:42:57.816Z,7.13
2023-03-25T03:43:28.093Z,7.12
2023-03-25T03:43:52.557Z,7.10
2023-03-25T03:44:16.773Z,7.08
2023-03-25T03:44:43.059Z,7.07
2023-03-25T03:45:08.197Z,7.06
2023-03-25T03:45:34.708Z,7.05
2023-03-25T03:46:02.180Z,7.04
2023-03-25T03:46:27.841Z,7.03
2023-03-25T03:46:55.300Z,7.03
2023-03-25T03:47:22.732Z,7.03
2023-03-25T03:47:51.589Z,7.04
2023-03-25T03:48:17.713Z,7.05
2023-03-25T03:48:42.487Z,7.06
2023-03-25T03:49:06.315Z,7.07
2023-03-25T03:49:31.983Z,7.08
2023-03-25T03:49:57.264Z,7.09
2023-03-25T03:50:21.282Z,7.10
2023-03-25T03:51:08.132Z,7.11
2023-03-25T03:51:38.703Z,7.12
2023-03-25T03:52:08.112Z,7.13
2023-03-25T03:52:33.737Z,7.13
2023-03-25T03:52:57.557Z,7.13
2023-03-25T03:53:29.776Z,7.13
2023-03-25T03:53:55.034Z,7.13
2023-03-25T03:54:22.957Z,7.12
2023-03-25T03:54:51.076Z,7.12
2023-03-25T03:55:14.925Z,7.11
2023-03-25T03:55:43.177Z,7.10
2023-03-25T03:56:07.860Z,7.09
2023-03-25T03:56:37.370Z,7.08
2023-03-25T03:57:04.504Z,7.06
2023-03-25T03:57:37.515Z,7.06
2023-03-25T03:58:01.824Z,7.04
2023-03-25T03:58:28.721Z,7.04
2023-03-25T03:58:53.471Z,7.03
2023-03-25T03:59:24.212Z,7.02
2023-03-25T04:00:04.095Z,7.02
2023-03-25T04:00:49.994Z,7.02
2023-03-25T04:01:28.187Z,7.03
2023-03-25T04:01:54.084Z,7.05
2023-03-25T04:02:23.655Z,7.07
2023-03-25T04:02:51.109Z,7.09
2023-03-25T04:03:24.632Z,7.12
2023-03-25T04:03:52.437Z,7.14
2023-03-25T04:04:16.556Z,7.16
2023-03-25T04:04:42.846Z,7.17
2023-03-25T04:05:07.088Z,7.19
2023-03-25T04:05:32.557Z,7.21
2023-03-25T04:06:00.798Z,7.21
2023-03-25T04:06:29.512Z,7.23
2023-03-25T04:07:04.694Z,7.23
2023-03-25T04:07:39.303Z,7.24
2023-03-25T04:08:12.171Z,7.24
2023-03-25T04:08:37.806Z,7.24
2023-03-25T04:09:11.721Z,7.24
2023-03-25T04:10:15.250Z,7.24
2023-03-25T04:10:40.497Z,7.23
2023-03-25T04:11:08.107Z,7.23
2023-03-25T04:11:33.198Z,7.23
2023-03-25T04:12:00.481Z,7.23
2023-03-25T04:12:32.074Z,7.23
2023-03-25T04:13:02.657Z,7.23
2023-03-25T04:13:27.097Z,7.22
2023-03-25T04:13:51.648Z,7.22
2023-03-25T04:14:14.595Z,7.23
2023-03-25T04:14:38.181Z,7.23
2023-03-25T04:15:03.583Z,7.24
2023-03-25T04:15:26.873Z,7.25
2023-03-25T04:15:51.904Z,7.27
2023-03-25T04:16:15.853Z,7.29
2023-03-25T04:16:39.297Z,7.31
2023-03-25T04:17:02.286Z,7.33
2023-03-25T04:17:25.477Z,7.36
2023-03-25T04:17:48.612Z,7.38
2023-03-25T04:18:12.235Z,7.40
2023-03-25T04:18:35.457Z,7.42
2023-03-25T04:18:59.800Z,7.44
2023-03-25T04:19:23.840Z,7.46
2023-03-25T04:19:49.017Z,7.47
2023-03-25T04:20:15.888Z,7.49
2023-03-25T04:20:45.125Z,7.50
2023-03-25T04:21:09.907Z,7.51
2023-03-25T04:21:35.868Z,7.51
2023-03-25T04:21:59.493Z,7.52
2023-03-25T04:22:24.861Z,7.52
2023-03-25T04:22:47.870Z,7.53
2023-03-25T04:23:16.201Z,7.53
2023-03-25T04:23:41.369Z,7.53
2023-03-25T04:24:08.363Z,7.53
2023-03-25T04:24:31.988Z,7.53
2023-03-25T04:24:56.358Z,7.54
2023-03-25T04:25:21.637Z,7.54
2023-03-25T04:25:50.230Z,7.53
2023-03-25T04:26:14.156Z,7.54
2023-03-25T04:26:38.299Z,7.55
2023-03-25T04:27:04.690Z,7.55
2023-03-25T04:27:30.028Z,7.56
2023-03-25T04:27:59.151Z,7.57
2023-03-25T04:28:24.077Z,7.59
2023-03-25T04:28:48.219Z,7.61
2023-03-25T04:29:13.954Z,7.63
2023-03-25T04:29:37.377Z,7.65
2023-03-25T04:30:02.005Z,7.68
2023-03-25T04:30:28.923Z,7.70
2023-03-25T04:30:56.975Z,7.72
2023-03-25T04:31:20.189Z,7.74
2023-03-25T04:31:46.478Z,7.75
2023-03-25T04:32:11.099Z,7.76
2023-03-25T04:32:35.117Z,7.77
2023-03-25T04:32:58.259Z,7.78
2023-03-25T04:33:23.097Z,7.78
2023-03-25T04:33:48.723Z,7.78
2023-03-25T04:34:14.148Z,7.79
2023-03-25T04:34:38.927Z,7.79
2023-03-25T04:35:03.862Z,7.79
2023-03-25T04:35:26.896Z,7.80
2023-03-25T04:35:51.798Z,7.80
2023-03-25T04:36:15.473Z,7.80
2023-03-25T04:36:41.920Z,7.80
2023-03-25T04:37:05.126Z,7.80
2023-03-25T04:37:28.352Z,7.81
2023-03-25T04:37:54.603Z,7.81
2023-03-25T04:38:18.389Z,7.81
2023-03-25T04:38:41.887Z,7.82
2023-03-25T04:39:09.764Z,7.82
2023-03-25T04:39:33.638Z,7.83
2023-03-25T04:40:01.452Z,7.85
2023-03-25T04:40:26.003Z,7.87
2023-03-25T04:40:50.091Z,7.89
2023-03-25T04:41:14.144Z,7.91
2023-03-25T04:41:39.147Z,7.93
2023-03-25T04:42:04.184Z,7.96
2023-03-25T04:42:33.125Z,7.99
2023-03-25T04:42:57.163Z,8.01
2023-03-25T04:43:20.386Z,8.03
2023-03-25T04:43:45.356Z,8.04
2023-03-25T04:44:09.799Z,8.05
2023-03-25T04:44:33.970Z,8.06
2023-03-25T04:44:57.248Z,8.06
2023-03-25T04:45:26.186Z,8.07
2023-03-25T04:45:54.926Z,8.08
2023-03-25T04:46:20.003Z,8.09
2023-03-25T04:46:46.400Z,8.09
2023-03-25T04:47:09.991Z,8.09
2023-03-25T04:47:33.232Z,8.09
2023-03-25T04:47:58.201Z,8.09
2023-03-25T04:48:24.250Z,8.10
2023-03-25T04:48:47.968Z,8.10
2023-03-25T04:49:14.472Z,8.10
2023-03-25T04:49:37.595Z,8.10
2023-03-25T04:50:02.022Z,8.10
2023-03-25T04:50:28.521Z,8.10
2023-03-25T04:50:52.024Z,8.10
2023-03-25T04:51:16.159Z,8.09
2023-03-25T04:51:42.347Z,8.09
2023-03-25T04:52:09.551Z,8.09
2023-03-25T04:52:33.480Z,8.08
2023-03-25T04:53:00.708Z,8.09
2023-03-25T04:53:24.121Z,8.10
2023-03-25T04:53:47.543Z,8.11
2023-03-25T04:54:11.671Z,8.13
2023-03-25T04:54:34.585Z,8.14
2023-03-25T04:54:57.668Z,8.15
2023-03-25T04:55:21.111Z,8.17
2023-03-25T04:55:48.295Z,8.17
2023-03-25T04:56:20.941Z,8.19
2023-03-25T04:56:43.981Z,8.20
2023-03-25T04:57:10.170Z,8.21
2023-03-25T04:57:33.862Z,8.21
2023-03-25T04:58:00.049Z,8.21
2023-03-25T04:58:29.051Z,8.21
2023-03-25T04:58:56.708Z,8.20
2023-03-25T04:59:21.223Z,8.19
2023-03-25T04:59:44.982Z,8.19
2023-03-25T05:00:09.216Z,8.19
2023-03-25T05:00:33.559Z,8.18
2023-03-25T05:00:56.672Z,8.17
2023-03-25T05:01:33.060Z,8.16
2023-03-25T05:01:56.195Z,8.16
2023-03-25T05:02:20.951Z,8.11
2023-03-25T05:02:46.092Z,8.16
2023-03-25T05:03:09.982Z,8.15
2023-03-25T05:03:33.352Z,8.14
2023-03-25T05:04:05.984Z,8.14
2023-03-25T05:04:30.138Z,8.13
2023-03-25T05:04:54.463Z,8.13
2023-03-25T05:05:20.853Z,8.13
2023-03-25T05:05:43.961Z,8.13
2023-03-25T05:06:08.607Z,8.13
2023-03-25T05:06:38.546Z,8.14
2023-03-25T05:07:02.622Z,8.15
2023-03-25T05:07:25.925Z,8.16
2023-03-25T05:07:50.062Z,8.17
2023-03-25T05:08:15.231Z,8.19
2023-03-25T05:08:38.440Z,8.20
2023-03-25T05:09:01.974Z,8.21
2023-03-25T05:09:25.182Z,8.22
2023-03-25T05:09:48.807Z,8.23
2023-03-25T05:10:12.837Z,8.24
2023-03-25T05:10:36.499Z,8.24
2023-03-25T05:11:00.408Z,8.24
2023-03-25T05:11:26.677Z,8.24
2023-03-25T05:11:52.965Z,8.24
2023-03-25T05:12:18.733Z,8.23
2023-03-25T05:12:41.955Z,8.23
2023-03-25T05:13:05.947Z,8.22
2023-03-25T05:13:29.611Z,8.22
2023-03-25T05:13:52.726Z,8.21
2023-03-25T05:14:16.780Z,8.21
2023-03-25T05:14:39.997Z,8.21
2023-03-25T05:15:04.014Z,8.20
2023-03-25T05:15:28.494Z,8.20
2023-03-25T05:15:51.916Z,8.20
2023-03-25T05:16:16.143Z,8.20
2023-03-25T05:16:39.500Z,8.19
2023-03-25T05:17:02.861Z,8.19
2023-03-25T05:17:26.536Z,8.19
2023-03-25T05:17:51.274Z,8.19
2023-03-25T05:18:19.155Z,8.19
2023-03-25T05:18:43.596Z,8.21
2023-03-25T05:19:06.923Z,8.21
2023-03-25T05:19:35.421Z,8.22
2023-03-25T05:20:00.506Z,8.25
2023-03-25T05:20:24.573Z,8.26
2023-03-25T05:20:51.165Z,8.28
2023-03-25T05:21:17.208Z,8.30
2023-03-25T05:21:41.140Z,8.33
2023-03-25T05:22:04.849Z,8.35
2023-03-25T05:22:28.846Z,8.37
2023-03-25T05:22:53.675Z,8.38
2023-03-25T05:23:18.179Z,8.40
2023-03-25T05:23:42.137Z,8.41
2023-03-25T05:24:08.499Z,8.41
2023-03-25T05:24:31.612Z,8.42
2023-03-25T05:24:58.233Z,8.42
2023-03-25T05:25:25.569Z,8.41
2023-03-25T05:25:51.394Z,8.41
2023-03-25T05:26:15.647Z,8.42
2023-03-25T05:26:42.148Z,8.41
2023-03-25T05:27:05.660Z,8.41
2023-03-25T05:27:30.437Z,8.41
2023-03-25T05:27:54.655Z,8.41
2023-03-25T05:28:17.969Z,8.41
2023-03-25T05:28:41.593Z,8.41
2023-03-25T05:29:04.603Z,8.41
2023-03-25T05:29:28.026Z,8.41
2023-03-25T05:29:52.265Z,8.41
2023-03-25T05:30:16.231Z,8.41
2023-03-25T05:30:43.525Z,8.41
2023-03-25T05:31:08.907Z,8.41
2023-03-25T05:32:17.881Z,8.50
2023-03-25T05:32:41.766Z,8.47
2023-03-25T05:33:06.807Z,8.49
2023-03-25T05:33:31.246Z,8.51
2023-03-25T05:33:55.170Z,8.53
2023-03-25T05:34:18.399Z,8.55
2023-03-25T05:34:41.598Z,8.57
2023-03-25T05:35:04.916Z,8.58
2023-03-25T05:35:28.483Z,8.60
2023-03-25T05:35:52.054Z,8.62
2023-03-25T05:36:18.464Z,8.63
2023-03-25T05:36:42.054Z,8.64
2023-03-25T05:37:05.635Z,8.65
2023-03-25T05:37:33.635Z,8.65
2023-03-25T05:37:59.513Z,8.66
2023-03-25T05:38:24.146Z,8.66
2023-03-25T05:38:48.496Z,8.67
2023-03-25T05:39:11.607Z,8.67
2023-03-25T05:39:34.818Z,8.68
2023-03-25T05:39:58.444Z,8.68
2023-03-25T05:40:21.762Z,8.69
2023-03-25T05:40:48.254Z,8.70
2023-03-25T05:41:17.018Z,8.70
2023-03-25T05:41:45.958Z,8.72
2023-03-25T05:42:10.931Z,8.72
2023-03-25T05:42:38.000Z,8.73
2023-03-25T05:43:03.468Z,8.75
2023-03-25T05:43:26.880Z,8.75
2023-03-25T05:43:51.178Z,8.76
2023-03-25T05:44:14.947Z,8.77
2023-03-25T05:44:46.967Z,8.79
2023-03-25T05:45:10.703Z,8.82
2023-03-25T05:45:36.241Z,8.84
2023-03-25T05:45:59.344Z,8.87
2023-03-25T05:46:23.141Z,8.90
2023-03-25T05:46:46.337Z,8.93
2023-03-25T05:47:09.632Z,8.95
2023-03-25T05:47:32.621Z,8.98
2023-03-25T05:47:55.886Z,9.01
2023-03-25T05:48:19.281Z,9.04
2023-03-25T05:48:43.029Z,9.06
2023-03-25T05:49:10.623Z,9.08
2023-03-25T05:49:37.011Z,9.10
2023-03-25T05:50:00.539Z,9.11
2023-03-25T05:50:23.958Z,9.12
2023-03-25T05:50:47.689Z,9.13
2023-03-25T05:51:13.686Z,9.13
2023-03-25T05:51:37.957Z,9.14
2023-03-25T05:52:01.954Z,9.14
2023-03-25T05:52:25.765Z,9.15
2023-03-25T05:52:49.899Z,9.15
2023-03-25T05:53:13.281Z,9.16